Time;durP1;ratioP1;P1;durP2;ratioP2;P2;SDS_P1;SDS_P2;PMS_P1;PMS_P2;Temp;Humidity;BMP_temperature;BMP_pressure;BME280_temperature;BME280_humidity;BME280_pressure;Samples;Min_cycle;Max_cycle;Signal;HPM_P1;HPM_P2
2022/02/05 00:02:15;;;;;;;2.15;0.70;;;17.50;59.20;;;;;;5061658;28;20448;-58
2022/02/05 00:04:40;;;;;;;1.23;0.50;;;17.50;59.20;;;;;;5059103;28;20039;-60
2022/02/05 00:07:08;;;;;;;1.80;0.55;;;17.50;59.20;;;;;;5044112;28;20025;-59
2022/02/05 00:41:32;;;;;;;0.75;0.40;;;17.50;58.50;;;;;;5064726;28;20033;-59
2022/02/05 00:44:00;;;;;;;0.77;0.40;;;17.50;58.40;;;;;;5062800;28;20044;-60
2022/02/05 00:46:30;;;;;;;1.05;0.40;;;17.50;58.40;;;;;;5064067;28;20637;-60
2022/02/05 00:48:56;;;;;;;1.30;0.32;;;17.50;58.30;;;;;;5046727;28;20379;-60
2022/02/05 00:51:27;;;;;;;1.05;0.50;;;17.50;58.30;;;;;;5064706;28;20028;-59
2022/02/05 00:54:11;;;;;;;1.05;0.32;;;17.50;58.40;;;;;;5064682;28;20177;-60
2022/02/05 00:57:33;;;;;;;0.68;0.43;;;17.50;58.30;;;;;;5059946;28;20147;-59
2022/02/05 00:59:22;;;;;;;0.57;0.40;;;17.50;58.30;;;;;;5049175;28;20032;-60
2022/02/05 01:01:48;;;;;;;1.92;0.65;;;17.50;58.30;;;;;;5063760;28;20025;-58
2022/02/05 01:04:14;;;;;;;0.90;0.50;;;17.50;58.30;;;;;;5063397;28;20040;-60
2022/02/05 01:06:39;;;;;;;1.50;0.40;;;17.50;58.20;;;;;;5063694;28;20397;-59
2022/02/05 01:09:07;;;;;;;0.80;0.38;;;17.50;58.10;;;;;;5063448;28;20028;-59
2022/02/05 01:11:33;;;;;;;1.88;0.43;;;17.50;58.00;;;;;;5063842;28;20643;-60
2022/02/05 01:14:00;;;;;;;0.35;0.20;;;17.50;58.10;;;;;;5063888;28;20107;-59
2022/02/05 01:18:57;;;;;;;1.25;0.50;;;17.50;58.10;;;;;;5063347;28;20028;-60
2022/02/05 01:21:40;;;;;;;1.25;0.60;;;17.40;58.00;;;;;;5062793;28;20032;-59
2022/02/05 01:24:08;;;;;;;0.90;0.47;;;17.40;58.00;;;;;;5063290;28;20107;-60
2022/02/05 01:26:40;;;;;;;0.60;0.30;;;17.50;58.00;;;;;;5063468;28;20751;-59
2022/02/05 01:29:19;;;;;;;1.35;0.40;;;17.40;58.00;;;;;;5063616;28;20082;-59
2022/02/05 01:31:50;;;;;;;0.93;0.38;;;17.40;57.90;;;;;;5062659;28;20033;-60
2022/02/05 01:58:13;;;;;;;0.73;0.38;;;17.40;57.70;;;;;;5063366;28;20025;-62
2022/02/05 02:07:11;;;;;;;0.32;0.22;;;17.40;57.60;;;;;;5060929;28;20035;-61
2022/02/05 02:11:53;;;;;;;1.95;0.57;;;17.30;57.60;;;;;;5063185;28;20058;-59
2022/02/05 02:14:45;;;;;;;0.52;0.20;;;17.30;57.60;;;;;;5060043;28;20048;-60
2022/02/05 02:20:34;;;;;;;1.35;0.40;;;17.40;57.60;;;;;;5043872;28;20094;-58
2022/02/05 02:23:04;;;;;;;0.60;0.30;;;17.40;57.60;;;;;;5057514;28;20037;-59
2022/02/05 02:28:12;;;;;;;1.15;0.50;;;17.30;57.50;;;;;;5060562;28;20024;-56
2022/02/05 02:30:50;;;;;;;0.73;0.28;;;17.40;57.50;;;;;;5041675;28;20029;-57
2022/02/05 02:33:24;;;;;;;0.55;0.30;;;17.40;57.50;;;;;;5063093;28;20029;-57
2022/02/05 02:35:50;;;;;;;0.40;0.30;;;17.30;57.40;;;;;;5060011;28;20051;-57
2022/02/05 02:38:19;;;;;;;1.30;0.40;;;17.30;57.40;;;;;;5058219;28;20502;-60
2022/02/05 02:40:57;;;;;;;0.28;0.20;;;17.30;57.40;;;;;;5062344;28;20029;-62
2022/02/05 02:43:27;;;;;;;0.88;0.40;;;17.30;57.40;;;;;;5062012;28;20154;-57
2022/02/05 02:45:52;;;;;;;0.52;0.52;;;17.30;57.30;;;;;;5031941;28;20032;-53
2022/02/05 02:48:18;;;;;;;0.75;0.30;;;17.30;57.30;;;;;;5062029;28;20129;-59
2022/02/05 02:59:01;;;;;;;1.30;0.40;;;17.30;57.30;;;;;;5061938;28;20401;-57
2022/02/05 03:01:30;;;;;;;0.43;0.30;;;17.30;57.20;;;;;;5062734;28;20093;-61
2022/02/05 03:03:55;;;;;;;0.73;0.30;;;17.30;57.30;;;;;;5058345;28;20513;-58
2022/02/05 03:06:21;;;;;;;0.70;0.32;;;17.20;57.20;;;;;;5062767;28;20032;-59
2022/02/05 03:08:49;;;;;;;1.00;0.20;;;17.20;57.20;;;;;;5062132;28;20035;-54
2022/02/05 03:11:18;;;;;;;1.30;0.50;;;17.30;57.10;;;;;;5062264;28;20036;-55
2022/02/05 03:13:44;;;;;;;0.85;0.38;;;17.30;57.10;;;;;;5041035;28;24628;-59
2022/02/05 03:16:10;;;;;;;0.40;0.20;;;17.30;57.10;;;;;;5062477;28;20662;-57
2022/02/05 03:18:49;;;;;;;0.75;0.30;;;17.30;57.10;;;;;;5062182;28;20110;-61
2022/02/05 03:21:14;;;;;;;2.08;0.40;;;17.20;57.10;;;;;;5060595;28;20096;-58
2022/02/05 03:23:40;;;;;;;1.60;0.57;;;17.30;57.10;;;;;;5061729;28;20037;-62
2022/02/05 03:26:05;;;;;;;0.68;0.32;;;17.20;57.60;;;;;;5062578;28;20029;-63
2022/02/05 03:28:33;;;;;;;0.90;0.40;;;17.20;57.00;;;;;;5061548;28;20155;-60
2022/02/05 03:30:59;;;;;;;1.90;0.30;;;17.30;57.70;;;;;;5062428;28;20051;-59
2022/02/05 03:33:24;;;;;;;0.70;0.32;;;17.30;57.10;;;;;;5060713;28;20482;-56
2022/02/05 03:35:50;;;;;;;0.60;0.30;;;17.20;57.00;;;;;;5061456;28;20032;-61
2022/02/05 03:38:15;;;;;;;2.58;0.40;;;17.20;57.00;;;;;;5062390;28;20033;-59
2022/02/05 03:40:41;;;;;;;0.43;0.20;;;17.20;57.00;;;;;;5061993;28;20174;-56
2022/02/05 03:43:06;;;;;;;0.85;0.30;;;17.30;57.00;;;;;;5061797;28;20137;-56
2022/02/05 03:45:33;;;;;;;1.50;0.30;;;17.20;57.00;;;;;;5062038;28;20525;-61
2022/02/05 03:47:59;;;;;;;0.45;0.30;;;17.20;57.10;;;;;;5061850;28;20036;-63
2022/02/05 03:50:24;;;;;;;1.17;0.40;;;17.20;57.20;;;;;;5043720;28;20036;-61
2022/02/05 03:52:50;;;;;;;1.30;0.45;;;17.10;57.40;;;;;;5061923;28;20104;-59
2022/02/05 03:55:15;;;;;;;0.65;0.40;;;17.20;57.50;;;;;;5064568;28;20036;-57
2022/02/05 03:57:43;;;;;;;1.13;0.32;;;17.20;57.40;;;;;;5065909;28;20036;-61
2022/02/05 04:00:08;;;;;;;0.82;0.40;;;17.10;57.50;;;;;;5064700;28;20025;-58
2022/02/05 04:02:35;;;;;;;0.52;0.40;;;17.20;57.60;;;;;;5065670;28;20374;-57
2022/02/05 04:05:00;;;;;;;1.88;0.30;;;17.10;57.50;;;;;;5065633;28;20039;-58
2022/02/05 04:07:28;;;;;;;1.40;0.40;;;17.20;57.60;;;;;;5047587;28;20025;-58
2022/02/05 04:09:58;;;;;;;0.60;0.38;;;17.10;57.50;;;;;;5063858;28;20089;-59
2022/02/05 04:17:52;;;;;;;1.30;0.45;;;17.20;57.60;;;;;;5065232;28;20034;-57
2022/02/05 04:20:18;;;;;;;0.85;0.30;;;17.10;57.50;;;;;;5064363;28;20021;-63
2022/02/05 04:22:43;;;;;;;2.15;0.95;;;17.20;57.60;;;;;;5065033;28;20559;-57
2022/02/05 04:25:12;;;;;;;0.73;0.40;;;17.10;57.60;;;;;;5045104;28;20083;-60
2022/02/05 04:27:37;;;;;;;1.10;0.50;;;17.20;57.60;;;;;;5062110;28;20032;-61
2022/02/05 04:30:04;;;;;;;1.15;0.30;;;17.10;57.60;;;;;;5043245;28;20039;-59
2022/02/05 04:32:29;;;;;;;1.42;0.50;;;17.20;57.70;;;;;;5045398;28;20021;-59
2022/02/05 04:34:55;;;;;;;0.95;0.40;;;17.20;57.70;;;;;;5064955;28;20157;-58
2022/02/05 04:37:23;;;;;;;0.65;0.30;;;17.20;57.60;;;;;;5064792;28;20029;-64
2022/02/05 04:40:00;;;;;;;0.95;0.30;;;17.20;57.60;;;;;;5030302;28;20028;-59
2022/02/05 04:42:37;;;;;;;1.33;0.50;;;17.20;57.50;;;;;;5064677;28;20070;-60
2022/02/05 04:47:58;;;;;;;1.08;0.35;;;17.20;57.40;;;;;;5065312;28;20029;-59
2022/02/05 04:50:50;;;;;;;0.80;0.30;;;17.30;57.30;;;;;;5052935;28;20028;-60
2022/02/05 04:53:43;;;;;;;1.00;0.30;;;17.30;57.20;;;;;;5062348;28;20048;-59
2022/02/05 04:56:23;;;;;;;1.52;0.70;;;17.20;57.10;;;;;;5064662;28;20115;-59
2022/02/05 05:02:07;;;;;;;0.52;0.38;;;17.30;56.90;;;;;;5044272;28;20024;-58
2022/02/05 05:04:36;;;;;;;2.42;0.47;;;17.30;56.80;;;;;;5063520;28;20017;-60
2022/02/05 05:10:21;;;;;;;1.25;0.38;;;17.20;57.00;;;;;;5064314;28;20032;-60
2022/02/05 05:13:01;;;;;;;1.40;0.40;;;17.20;57.00;;;;;;5064073;28;20036;-61
2022/02/05 05:15:36;;;;;;;0.50;0.40;;;17.20;57.10;;;;;;5064660;28;20082;-60
2022/02/05 05:20:52;;;;;;;1.10;0.40;;;17.20;57.00;;;;;;5063788;28;20128;-59
2022/02/05 05:23:18;;;;;;;0.82;0.35;;;17.20;57.00;;;;;;5064239;28;20107;-61
2022/02/05 05:25:43;;;;;;;1.02;0.30;;;17.30;57.00;;;;;;5064273;28;20060;-60
2022/02/05 05:28:09;;;;;;;0.90;0.40;;;17.20;56.90;;;;;;5064532;28;20036;-61
2022/02/05 05:30:34;;;;;;;2.72;0.40;;;17.30;56.80;;;;;;5063362;28;20039;-58
2022/02/05 05:33:00;;;;;;;3.17;0.57;;;17.20;56.80;;;;;;5064895;28;20044;-59
2022/02/05 05:35:25;;;;;;;1.75;0.50;;;17.20;56.60;;;;;;5064518;28;20029;-60
2022/02/05 05:37:52;;;;;;;0.95;0.40;;;17.20;56.60;;;;;;5064629;28;20055;-59
2022/02/05 05:40:17;;;;;;;0.88;0.45;;;17.30;56.70;;;;;;5064060;28;21605;-58
2022/02/05 05:42:48;;;;;;;3.97;0.50;;;17.30;56.60;;;;;;5064404;28;20224;-60
2022/02/05 05:45:28;;;;;;;0.98;0.60;;;17.30;56.60;;;;;;5064042;28;20028;-59
2022/02/05 05:47:56;;;;;;;1.00;0.60;;;17.30;56.40;;;;;;5060988;28;20036;-61
2022/02/05 05:53:10;;;;;;;0.98;0.50;;;17.30;56.50;;;;;;5062723;28;20029;-61
2022/02/05 05:55:36;;;;;;;1.25;0.63;;;17.30;56.40;;;;;;5063590;28;20032;-60
2022/02/05 05:58:01;;;;;;;1.75;0.50;;;17.30;56.40;;;;;;5045374;28;20052;-59
2022/02/05 06:00:27;;;;;;;1.52;0.60;;;17.20;57.00;;;;;;5043881;28;20025;-56
2022/02/05 06:02:52;;;;;;;0.82;0.40;;;17.20;56.30;;;;;;5042647;28;20025;-60
2022/02/05 06:05:18;;;;;;;1.17;0.40;;;17.20;56.30;;;;;;5061733;28;20036;-60
2022/02/05 06:07:43;;;;;;;1.30;0.40;;;17.30;56.30;;;;;;5063250;28;20450;-59
2022/02/05 06:10:09;;;;;;;1.73;0.80;;;17.30;56.30;;;;;;5063162;28;20087;-60
2022/02/05 06:12:35;;;;;;;1.67;0.38;;;17.20;56.20;;;;;;5063334;28;20021;-57
2022/02/05 06:15:03;;;;;;;1.05;0.50;;;17.20;56.20;;;;;;5063139;28;20044;-66
2022/02/05 06:17:29;;;;;;;1.65;0.40;;;17.20;56.20;;;;;;5063402;28;20028;-59
2022/02/05 06:19:55;;;;;;;0.30;0.30;;;17.20;56.10;;;;;;5061648;28;20086;-59
2022/02/05 06:22:20;;;;;;;1.08;0.32;;;17.20;56.10;;;;;;5043985;28;20171;-60
2022/02/05 06:24:46;;;;;;;1.27;0.40;;;17.20;56.10;;;;;;5042535;28;20047;-57
2022/02/05 06:27:11;;;;;;;0.82;0.50;;;17.20;56.10;;;;;;5063685;28;20029;-58
2022/02/05 06:29:37;;;;;;;0.82;0.50;;;17.20;56.00;;;;;;5062005;28;20033;-61
2022/02/05 06:32:03;;;;;;;0.73;0.60;;;17.20;56.10;;;;;;5062731;28;20086;-58
2022/02/05 06:34:28;;;;;;;1.55;0.50;;;17.20;56.00;;;;;;5063068;28;20051;-57
2022/02/05 06:36:54;;;;;;;1.42;0.60;;;17.20;56.10;;;;;;5059917;28;20029;-61
2022/02/05 06:39:20;;;;;;;1.17;0.32;;;17.20;56.00;;;;;;5062931;28;20028;-60
2022/02/05 06:41:46;;;;;;;1.98;0.80;;;17.20;56.00;;;;;;5063050;28;20028;-57
2022/02/05 06:44:12;;;;;;;1.60;0.40;;;17.20;56.00;;;;;;5044249;28;20136;-58
2022/02/05 06:46:39;;;;;;;1.25;0.40;;;17.20;56.00;;;;;;5062988;28;20052;-58
2022/02/05 06:49:05;;;;;;;1.02;0.52;;;17.10;55.90;;;;;;5041081;28;20037;-58
2022/02/05 06:51:30;;;;;;;1.05;0.40;;;17.20;55.90;;;;;;5059224;28;20052;-59
2022/02/05 06:53:56;;;;;;;1.63;0.57;;;17.20;55.90;;;;;;5062869;28;20039;-57
2022/02/05 06:56:21;;;;;;;1.08;0.50;;;17.20;56.00;;;;;;5062178;28;20477;-60
2022/02/05 06:58:47;;;;;;;1.30;0.60;;;17.20;55.90;;;;;;5062040;28;20036;-60
2022/02/05 07:01:12;;;;;;;1.42;0.60;;;17.20;55.90;;;;;;5062433;28;20064;-60
2022/02/05 07:03:38;;;;;;;1.75;0.50;;;17.20;55.90;;;;;;5061552;28;20029;-60
2022/02/05 07:06:05;;;;;;;1.75;0.50;;;17.20;56.10;;;;;;5060960;28;20040;-58
2022/02/05 07:08:31;;;;;;;4.55;0.70;;;17.20;56.00;;;;;;5040003;28;20039;-59
2022/02/05 07:10:56;;;;;;;4.43;0.60;;;17.10;56.10;;;;;;5042411;28;20615;-59
2022/02/05 07:13:22;;;;;;;3.85;0.63;;;17.10;56.20;;;;;;5061040;28;21017;-61
2022/02/05 07:16:04;;;;;;;3.42;0.80;;;17.20;56.40;;;;;;5057006;28;20029;-61
2022/02/05 07:18:46;;;;;;;11.13;0.73;;;17.10;56.40;;;;;;5033104;28;20032;-59
2022/02/05 07:21:16;;;;;;;2.85;0.60;;;17.10;56.40;;;;;;5045188;28;20141;-61
2022/02/05 07:23:54;;;;;;;2.92;0.98;;;17.10;56.50;;;;;;5061768;28;20045;-59
2022/02/05 07:29:16;;;;;;;2.17;1.00;;;17.10;56.90;;;;;;5047395;28;20105;-61
2022/02/05 07:31:55;;;;;;;4.53;0.90;;;17.10;57.60;;;;;;5065307;28;20406;-60
2022/02/05 07:34:23;;;;;;;3.72;0.70;;;17.10;57.80;;;;;;5066010;28;20037;-57
2022/02/05 07:36:49;;;;;;;2.55;0.60;;;17.10;58.00;;;;;;5065710;28;20033;-61
2022/02/05 07:39:15;;;;;;;7.68;0.88;;;17.10;58.10;;;;;;5064990;28;20058;-59
2022/02/05 07:41:41;;;;;;;2.85;0.80;;;17.10;58.10;;;;;;5065397;28;20025;-60
2022/02/05 07:44:12;;;;;;;2.15;0.65;;;17.10;57.80;;;;;;5046352;28;20568;-61
2022/02/05 07:46:38;;;;;;;5.55;0.70;;;17.10;57.60;;;;;;5065938;28;20052;-58
2022/02/05 07:49:04;;;;;;;4.00;0.52;;;17.10;57.40;;;;;;5064934;28;20066;-58
2022/02/05 07:51:29;;;;;;;5.82;1.00;;;17.10;57.20;;;;;;5065452;28;20146;-59
2022/02/05 07:53:55;;;;;;;3.42;1.17;;;17.10;57.10;;;;;;5065065;28;20064;-60
2022/02/05 07:56:20;;;;;;;3.25;0.90;;;17.10;57.20;;;;;;5065611;28;20056;-54
2022/02/05 07:58:46;;;;;;;10.30;1.30;;;17.00;57.20;;;;;;5064520;28;20032;-58
2022/02/05 08:01:11;;;;;;;6.13;1.88;;;17.00;57.30;;;;;;5065370;28;20082;-61
2022/02/05 08:03:37;;;;;;;4.32;0.60;;;17.00;57.40;;;;;;5065134;28;20028;-60
2022/02/05 08:06:05;;;;;;;4.50;1.13;;;17.00;57.40;;;;;;5065103;28;20043;-57
2022/02/05 08:08:33;;;;;;;3.33;0.85;;;17.00;57.50;;;;;;5064699;28;20041;-59
2022/02/05 08:11:09;;;;;;;4.07;0.50;;;17.00;57.50;;;;;;5037571;28;20032;-59
2022/02/05 08:13:35;;;;;;;1.60;0.63;;;17.00;57.70;;;;;;5062462;28;20163;-59
2022/02/05 08:16:28;;;;;;;1.65;0.63;;;17.00;57.60;;;;;;5065163;28;20037;-59
2022/02/05 08:18:53;;;;;;;4.63;0.93;;;17.00;57.60;;;;;;5064110;28;20043;-59
2022/02/05 08:21:18;;;;;;;2.55;1.00;;;17.00;57.60;;;;;;5065409;28;20024;-59
2022/02/05 08:23:44;;;;;;;4.43;0.98;;;17.00;57.70;;;;;;5065458;28;20390;-60
2022/02/05 08:26:09;;;;;;;2.72;1.20;;;17.00;57.60;;;;;;5065356;28;20029;-60
2022/02/05 08:28:36;;;;;;;4.97;1.17;;;17.00;57.60;;;;;;5064784;28;20032;-59
2022/02/05 08:31:01;;;;;;;3.97;1.55;;;17.00;57.50;;;;;;5064730;28;20127;-59
2022/02/05 08:33:27;;;;;;;3.50;0.93;;;17.10;57.50;;;;;;5043332;28;20120;-58
2022/02/05 08:35:52;;;;;;;4.97;1.13;;;17.00;57.40;;;;;;5063345;28;20047;-60
2022/02/05 08:38:18;;;;;;;2.22;1.10;;;17.00;57.30;;;;;;5062390;28;20040;-60
2022/02/05 08:40:44;;;;;;;2.83;1.10;;;17.10;57.20;;;;;;5062956;28;20489;-56
2022/02/05 08:43:10;;;;;;;3.50;1.00;;;17.00;57.00;;;;;;5064670;28;20044;-59
2022/02/05 08:45:36;;;;;;;3.42;1.10;;;17.10;56.90;;;;;;5063745;28;20029;-58
2022/02/05 08:48:02;;;;;;;3.25;1.15;;;17.00;56.70;;;;;;5065131;28;20051;-59
2022/02/05 08:50:28;;;;;;;3.30;1.25;;;17.00;56.60;;;;;;5063811;28;20108;-62
2022/02/05 08:52:55;;;;;;;3.65;1.15;;;17.00;56.50;;;;;;5064055;28;20055;-60
2022/02/05 08:55:21;;;;;;;4.25;1.25;;;17.00;56.40;;;;;;5064263;28;20025;-58
2022/02/05 08:57:47;;;;;;;2.50;1.15;;;17.00;56.20;;;;;;5043053;28;20022;-59
2022/02/05 09:00:15;;;;;;;3.03;1.27;;;17.10;56.10;;;;;;5064443;28;20029;-60
2022/02/05 09:07:51;;;;;;;9.07;2.00;;;17.10;55.90;;;;;;5064432;28;20096;-60
2022/02/05 09:10:32;;;;;;;5.50;2.45;;;17.10;55.80;;;;;;5064098;28;20048;-56
2022/02/05 09:15:33;;;;;;;;;;;17.10;55.90;;;;;;5043215;28;20029;-59
2022/02/05 09:17:58;;;;;;;;;;;17.20;56.00;;;;;;5061749;28;19916;-58
2022/02/05 09:20:25;;;;;;;8.17;2.80;;;17.10;55.70;;;;;;5063594;28;20390;-61
2022/02/05 09:22:51;;;;;;;9.57;3.13;;;17.20;56.00;;;;;;5064303;28;20188;-57
2022/02/05 09:25:16;;;;;;;7.47;2.53;;;17.10;55.10;;;;;;5064626;28;20044;-59
2022/02/05 09:27:45;;;;;;;7.35;2.83;;;17.10;54.80;;;;;;5064202;28;20370;-61
2022/02/05 09:30:15;;;;;;;5.95;2.50;;;17.10;55.00;;;;;;5063147;28;20060;-59
2022/02/05 09:32:40;;;;;;;7.00;2.08;;;17.10;55.10;;;;;;5061705;28;20024;-58
2022/02/05 09:35:07;;;;;;;8.50;2.25;;;17.10;55.40;;;;;;5044563;28;20055;-59
2022/02/05 09:37:33;;;;;;;6.53;2.75;;;17.10;55.90;;;;;;5072123;22;20044;-62
2022/02/05 09:39:58;;;;;;;5.97;2.08;;;17.10;56.30;;;;;;5063044;28;20078;-60
2022/02/05 09:42:24;;;;;;;4.70;2.40;;;17.10;56.70;;;;;;5063793;28;20555;-61
2022/02/05 09:44:49;;;;;;;7.35;2.92;;;17.10;56.80;;;;;;5064197;28;20028;-61
2022/02/05 09:47:15;;;;;;;7.00;2.50;;;17.10;57.00;;;;;;5045048;28;20028;-62
2022/02/05 09:49:42;;;;;;;8.18;2.42;;;17.10;57.30;;;;;;5044565;28;20029;-60
2022/02/05 09:52:14;;;;;;;6.10;2.17;;;17.10;57.40;;;;;;5064268;28;20398;-60
2022/02/05 09:54:40;;;;;;;10.20;2.35;;;17.10;57.40;;;;;;5063452;28;20167;-62
2022/02/05 09:57:06;;;;;;;4.03;2.05;;;17.10;57.50;;;;;;5063883;28;20575;-61
2022/02/05 09:59:39;;;;;;;4.07;2.80;;;17.10;57.50;;;;;;5044944;28;20029;-61
2022/02/05 10:02:38;;;;;;;7.55;2.25;;;17.10;57.60;;;;;;5045453;28;20039;-60
2022/02/05 10:05:10;;;;;;;4.80;2.60;;;17.20;57.60;;;;;;5023841;28;20033;-61
2022/02/05 10:07:50;;;;;;;3.85;2.35;;;17.20;57.80;;;;;;5063558;28;20029;-61
2022/02/05 10:10:16;;;;;;;5.57;1.90;;;17.20;57.90;;;;;;5062434;28;20024;-60
2022/02/05 10:12:41;;;;;;;6.63;2.67;;;17.20;57.90;;;;;;5063292;28;20036;-61
2022/02/05 10:15:07;;;;;;;6.15;2.00;;;17.20;57.80;;;;;;5062499;28;20089;-66
2022/02/05 10:17:46;;;;;;;3.45;1.85;;;17.20;57.90;;;;;;5063201;28;20097;-60
2022/02/05 10:20:12;;;;;;;7.28;2.40;;;17.20;58.50;;;;;;5058292;28;20033;-61
2022/02/05 10:22:45;;;;;;;7.65;2.45;;;17.20;58.80;;;;;;5062612;28;20025;-60
2022/02/05 10:25:17;;;;;;;7.00;2.20;;;17.20;59.10;;;;;;5058428;28;20035;-61
2022/02/05 10:27:44;;;;;;;6.05;2.40;;;17.20;59.40;;;;;;5062732;28;20031;-60
2022/02/05 10:30:26;;;;;;;4.45;2.35;;;17.30;59.80;;;;;;5061854;28;20045;-61
2022/02/05 10:33:05;;;;;;;5.90;2.17;;;17.30;59.90;;;;;;5062281;28;20111;-60
2022/02/05 10:35:43;;;;;;;6.20;2.40;;;17.30;60.00;;;;;;5062529;28;20051;-60
2022/02/05 10:40:45;;;;;;;7.05;2.88;;;17.30;60.50;;;;;;5061415;28;20021;-60
2022/02/05 10:43:10;;;;;;;5.82;1.75;;;17.30;60.70;;;;;;5039570;28;20025;-60
2022/02/05 10:45:49;;;;;;;4.72;1.65;;;17.30;61.30;;;;;;5060923;28;20055;-60
2022/02/05 10:48:20;;;;;;;8.35;2.63;;;17.30;61.80;;;;;;5061684;28;20171;-62
2022/02/05 10:50:47;;;;;;;3.25;2.00;;;17.40;61.90;;;;;;5043585;28;20039;-60
2022/02/05 10:53:37;;;;;;;3.83;1.70;;;17.30;62.00;;;;;;5044177;28;20232;-62
2022/02/05 11:07:20;;;;;;;8.60;1.75;;;17.30;60.70;;;;;;5060541;28;20174;-60
2022/02/05 11:09:48;;;;;;;9.68;1.80;;;17.40;60.70;;;;;;5039936;28;20040;-60
2022/02/05 11:20:27;;;;;;;7.20;1.48;;;17.30;60.30;;;;;;5061076;28;20127;-59
2022/02/05 11:23:05;;;;;;;2.55;1.42;;;17.30;60.10;;;;;;5061701;28;20029;-61
2022/02/05 11:25:36;;;;;;;4.72;1.40;;;17.40;60.20;;;;;;5061958;28;20421;-60
2022/02/05 11:28:01;;;;;;;5.25;1.65;;;17.40;60.20;;;;;;5044253;28;20037;-61
2022/02/05 11:30:27;;;;;;;4.30;1.27;;;17.40;60.40;;;;;;5061207;28;20794;-60
2022/02/05 11:32:53;;;;;;;7.18;1.52;;;17.40;60.70;;;;;;5061155;28;20481;-60
2022/02/05 11:35:31;;;;;;;1.88;1.40;;;17.40;60.70;;;;;;5043185;28;20090;-60
2022/02/05 11:38:01;;;;;;;4.47;1.30;;;17.40;60.50;;;;;;5045130;28;20028;-61
2022/02/05 11:40:45;;;;;;;5.60;1.58;;;17.40;60.90;;;;;;5061626;28;20615;-61
2022/02/05 11:43:35;;;;;;;3.65;1.35;;;17.40;61.10;;;;;;5061978;28;20093;-60
2022/02/05 11:46:11;;;;;;;6.40;1.63;;;17.50;61.80;;;;;;5038946;28;20040;-61
2022/02/05 11:48:49;;;;;;;8.75;1.52;;;17.50;62.00;;;;;;5061979;28;20311;-61
2022/02/05 11:51:15;;;;;;;4.22;1.50;;;17.40;62.10;;;;;;5042037;28;20037;-59
2022/02/05 11:53:59;;;;;;;5.00;1.30;;;17.50;62.20;;;;;;5062438;28;20101;-59
2022/02/05 11:56:48;;;;;;;5.55;0.80;;;17.50;62.30;;;;;;5059289;28;20062;-61
2022/02/05 11:59:13;;;;;;;4.63;1.50;;;17.50;62.10;;;;;;5070437;22;20155;-58
2022/02/05 12:01:39;;;;;;;3.88;1.40;;;17.50;61.90;;;;;;5072297;28;20550;-58
2022/02/05 12:04:12;;;;;;;6.40;1.00;;;17.50;61.80;;;;;;5074205;28;20040;-58
2022/02/05 12:06:58;;;;;;;5.28;1.67;;;17.50;61.60;;;;;;5057807;28;20223;-57
2022/02/05 12:09:44;;;;;;;8.90;1.55;;;17.40;61.30;;;;;;5058501;28;20024;-55
2022/02/05 12:12:25;;;;;;;6.75;1.25;;;17.40;61.10;;;;;;5062754;28;20029;-56
2022/02/05 12:15:06;;;;;;;5.68;1.48;;;17.40;60.80;;;;;;5061714;28;20031;-57
2022/02/05 12:17:57;;;;;;;5.55;1.20;;;17.50;60.60;;;;;;5069503;28;20417;-57
2022/02/05 12:20:27;;;;;;;3.05;0.85;;;17.50;60.40;;;;;;5069254;28;20052;-58
2022/02/05 12:25:58;;;;;;;2.50;1.10;;;17.50;60.10;;;;;;5046894;28;20111;-56
2022/02/05 12:28:29;;;;;;;6.15;1.20;;;17.50;59.90;;;;;;5072090;28;20126;-58
2022/02/05 12:30:55;;;;;;;3.70;1.27;;;17.50;59.80;;;;;;5071225;28;20118;-57
2022/02/05 12:33:21;;;;;;;6.25;1.73;;;17.50;59.70;;;;;;5055835;28;20409;-58
2022/02/05 12:35:53;;;;;;;2.75;1.02;;;17.50;59.60;;;;;;5067148;28;20028;-58
2022/02/05 12:38:19;;;;;;;4.38;1.63;;;17.50;59.50;;;;;;5077698;28;20028;-57
2022/02/05 12:40:46;;;;;;;6.57;1.58;;;17.40;59.40;;;;;;5070838;28;20032;-57
2022/02/05 12:43:13;;;;;;;9.43;1.88;;;17.40;59.30;;;;;;5070969;28;20028;-57
2022/02/05 12:48:48;;;;;;;3.20;1.50;;;17.50;59.30;;;;;;4967414;28;20826;-57
2022/02/05 12:51:14;;;;;;;7.85;2.08;;;17.40;59.20;;;;;;5039279;28;20040;-58
2022/02/05 12:53:40;;;;;;;10.10;2.60;;;17.50;59.30;;;;;;5070235;28;20458;-57
2022/02/05 12:56:10;;;;;;;11.65;3.08;;;17.40;59.40;;;;;;5067055;28;20040;-57
2022/02/05 12:58:52;;;;;;;20.52;2.90;;;17.40;59.40;;;;;;5063783;28;20060;-56
2022/02/05 13:01:17;;;;;;;7.53;2.58;;;17.40;59.40;;;;;;5079136;28;20096;-57
2022/02/05 13:03:43;;;;;;;14.90;3.22;;;17.40;59.70;;;;;;5060322;28;20028;-57
2022/02/05 13:06:21;;;;;;;9.43;2.00;;;17.40;60.00;;;;;;5068764;28;20036;-58
2022/02/05 13:08:50;;;;;;;9.02;2.22;;;17.40;60.30;;;;;;5075288;28;20500;-57
2022/02/05 13:11:28;;;;;;;10.30;2.42;;;17.30;60.40;;;;;;5074129;28;20063;-56
2022/02/05 13:13:54;;;;;;;11.60;2.60;;;17.40;60.50;;;;;;5072782;28;20078;-57
2022/02/05 13:16:20;;;;;;;9.50;2.10;;;17.40;60.40;;;;;;5078425;28;20090;-55
2022/02/05 13:19:01;;;;;;;6.47;1.88;;;17.40;60.20;;;;;;5072238;28;20117;-57
2022/02/05 13:27:11;;;;;;;12.93;2.75;;;17.40;59.50;;;;;;5059117;28;20521;-58
2022/02/05 13:29:56;;;;;;;7.80;2.35;;;17.40;59.50;;;;;;5073202;28;20024;-57
2022/02/05 13:35:06;;;;;;;11.27;2.45;;;17.40;59.70;;;;;;5063920;28;20044;-57
2022/02/05 13:37:46;;;;;;;7.55;2.30;;;17.40;59.60;;;;;;5072113;28;20032;-56
2022/02/05 13:40:13;;;;;;;9.52;1.98;;;17.40;59.50;;;;;;5066867;28;20489;-54
2022/02/05 13:42:42;;;;;;;8.20;2.17;;;17.40;59.30;;;;;;5076747;28;20485;-57
2022/02/05 13:45:13;;;;;;;8.82;1.83;;;17.40;59.20;;;;;;5072930;28;20052;-58
2022/02/05 13:47:45;;;;;;;8.40;2.00;;;17.40;59.60;;;;;;5067044;28;20253;-56
2022/02/05 13:50:15;;;;;;;6.68;1.40;;;17.40;59.70;;;;;;5073702;28;20040;-57
2022/02/05 13:52:51;;;;;;;10.05;1.73;;;17.40;59.70;;;;;;5066319;28;20107;-56
2022/02/05 13:55:23;;;;;;;6.78;2.08;;;17.40;59.70;;;;;;5069496;28;20025;-56
2022/02/05 13:58:02;;;;;;;10.88;1.67;;;17.40;59.80;;;;;;5077762;28;20103;-57
2022/02/05 14:00:47;;;;;;;8.90;2.15;;;17.40;59.90;;;;;;5062172;28;20024;-56
2022/02/05 14:03:27;;;;;;;5.28;1.38;;;17.40;59.90;;;;;;5069182;28;20028;-57
2022/02/05 14:06:02;;;;;;;7.38;1.80;;;17.40;59.90;;;;;;5040764;28;20037;-54
2022/02/05 14:08:33;;;;;;;6.63;1.60;;;17.40;59.80;;;;;;5037080;28;20636;-56
2022/02/05 14:11:03;;;;;;;7.22;2.88;;;17.40;59.70;;;;;;5072035;28;20481;-57
2022/02/05 14:13:29;;;;;;;7.18;1.88;;;17.40;59.70;;;;;;5069219;28;20115;-57
2022/02/05 14:15:56;;;;;;;8.52;1.55;;;17.40;60.50;;;;;;5076138;28;20104;-58
2022/02/05 14:18:23;;;;;;;8.75;2.20;;;17.40;59.90;;;;;;5073716;28;20772;-57
2022/02/05 14:21:02;;;;;;;10.32;1.73;;;17.40;60.00;;;;;;5069856;28;20641;-57
2022/02/05 14:23:29;;;;;;;4.82;1.52;;;17.40;60.20;;;;;;5060989;28;20033;-58
2022/02/05 14:28:33;;;;;;;8.27;1.50;;;17.40;60.30;;;;;;5075840;28;20031;-58
2022/02/05 14:31:14;;;;;;;6.82;2.25;;;17.40;60.20;;;;;;5069779;28;20813;-58
2022/02/05 14:34:05;;;;;;;8.15;1.65;;;17.50;60.50;;;;;;5068791;28;20688;-54
2022/02/05 14:36:43;;;;;;;18.23;4.55;;;17.40;60.60;;;;;;5074868;28;20029;-55
2022/02/05 14:41:58;;;;;;;12.70;4.03;;;17.40;60.10;;;;;;5070593;28;20035;-56
2022/02/05 14:44:23;;;;;;;17.92;5.18;;;17.40;60.10;;;;;;5068933;28;20024;-54
2022/02/05 14:46:49;;;;;;;20.13;4.35;;;17.50;60.00;;;;;;5075154;28;20404;-55
2022/02/05 14:49:14;;;;;;;8.73;3.67;;;17.40;59.70;;;;;;5073676;28;20032;-58
2022/02/05 14:51:40;;;;;;;9.00;4.00;;;17.50;60.30;;;;;;5065326;28;20033;-56
2022/02/05 14:54:06;;;;;;;10.23;4.32;;;17.40;59.80;;;;;;5071033;28;20040;-55
2022/02/05 14:56:31;;;;;;;15.40;5.05;;;17.40;59.70;;;;;;5052472;28;20134;-57
2022/02/05 14:58:57;;;;;;;11.18;4.30;;;17.40;59.90;;;;;;5062059;28;20064;-58
2022/02/05 15:01:25;;;;;;;9.50;4.60;;;17.40;59.90;;;;;;5063722;28;20040;-58
2022/02/05 15:03:54;;;;;;;9.23;4.47;;;17.40;59.80;;;;;;5062328;28;20043;-62
2022/02/05 15:06:26;;;;;;;16.13;4.60;;;17.40;59.70;;;;;;5068907;28;20036;-62
2022/02/05 15:08:52;;;;;;;10.25;3.60;;;17.40;59.70;;;;;;5072340;28;20029;-58
2022/02/05 15:11:18;;;;;;;8.75;3.92;;;17.40;59.70;;;;;;5063947;28;20056;-56
2022/02/05 15:13:44;;;;;;;14.50;4.20;;;17.40;59.60;;;;;;5076734;28;20052;-57
2022/02/05 15:16:10;;;;;;;7.68;3.65;;;17.30;59.60;;;;;;5071884;28;20059;-54
2022/02/05 15:18:41;;;;;;;9.82;3.42;;;17.40;59.50;;;;;;5073934;28;20040;-57
2022/02/05 15:21:07;;;;;;;10.68;3.25;;;17.30;59.60;;;;;;5070974;28;20043;-58
2022/02/05 15:23:32;;;;;;;9.13;3.70;;;17.30;59.90;;;;;;5059592;28;20115;-57
2022/02/05 15:26:02;;;;;;;7.03;2.90;;;17.30;60.10;;;;;;5062218;28;20036;-56
2022/02/05 15:28:27;;;;;;;7.75;3.30;;;17.40;60.20;;;;;;5076046;28;20021;-56
2022/02/05 15:30:53;;;;;;;7.72;3.20;;;17.30;60.20;;;;;;5073938;28;20032;-57
2022/02/05 15:33:21;;;;;;;6.22;2.53;;;17.30;60.80;;;;;;5073260;28;20028;-57